Time;durP1;ratioP1;P1;durP2;ratioP2;P2;SDS_P1;SDS_P2;PMS_P1;PMS_P2;Temp;Humidity;BMP_temperature;BMP_pressure;BME280_temperature;BME280_humidity;BME280_pressure;Samples;Min_cycle;Max_cycle;Signal;HPM_P1;HPM_P2
2023/03/01 00:02:21;;;;;;;20.80;14.00;;;0.70;99.90;;;;;;5093012;28;20301;-57
2023/03/01 00:04:48;;;;;;;18.50;12.57;;;0.80;99.90;;;;;;5093177;28;20208;-57
2023/03/01 00:07:15;;;;;;;22.70;14.70;;;0.70;99.90;;;;;;5093185;28;20211;-57
2023/03/01 00:09:41;;;;;;;17.47;11.77;;;0.70;99.90;;;;;;5093014;28;20211;-57
2023/03/01 00:12:08;;;;;;;18.07;12.23;;;0.70;99.90;;;;;;5093017;28;20227;-55
2023/03/01 00:14:36;;;;;;;16.43;11.80;;;0.70;99.90;;;;;;5093879;28;20774;-57
2023/03/01 00:17:04;;;;;;;14.87;10.97;;;0.70;99.90;;;;;;5094026;28;20208;-57
2023/03/01 00:19:32;;;;;;;15.83;11.03;;;0.70;99.90;;;;;;5093281;28;20208;-56
2023/03/01 00:21:59;;;;;;;15.33;10.17;;;0.70;99.90;;;;;;5092446;28;20289;-57
2023/03/01 00:24:25;;;;;;;14.37;10.23;;;0.70;99.90;;;;;;5092650;28;20223;-57
2023/03/01 00:26:55;;;;;;;17.03;10.80;;;0.70;99.90;;;;;;5093142;28;20205;-57
2023/03/01 00:29:21;;;;;;;14.50;10.27;;;0.70;99.90;;;;;;5092922;28;20215;-57
2023/03/01 00:31:48;;;;;;;13.53;9.73;;;0.60;99.90;;;;;;5092428;28;20281;-57
2023/03/01 00:34:16;;;;;;;15.47;11.03;;;0.70;99.90;;;;;;5092685;28;20671;-57
2023/03/01 00:36:43;;;;;;;16.33;10.80;;;0.60;99.90;;;;;;5092505;28;20208;-56
2023/03/01 00:39:13;;;;;;;14.00;9.93;;;0.50;99.90;;;;;;5092441;28;20215;-57
2023/03/01 00:41:40;;;;;;;14.73;10.50;;;0.60;99.90;;;;;;5091924;28;20295;-57
2023/03/01 00:44:06;;;;;;;16.70;11.53;;;0.60;99.90;;;;;;5092533;28;20204;-56
2023/03/01 00:46:33;;;;;;;14.47;10.40;;;0.70;99.90;;;;;;5093121;28;20208;-58
2023/03/01 00:49:01;;;;;;;15.87;10.37;;;0.70;99.90;;;;;;5092451;28;20204;-58
2023/03/01 00:51:30;;;;;;;14.93;9.97;;;0.70;99.90;;;;;;5091965;28;20224;-58
2023/03/01 00:54:00;;;;;;;14.80;10.07;;;0.50;99.90;;;;;;5092908;28;20204;-58
2023/03/01 00:56:28;;;;;;;15.37;10.03;;;0.50;99.90;;;;;;5092686;28;20231;-57
2023/03/01 00:58:54;;;;;;;13.50;10.37;;;0.50;99.90;;;;;;5092698;28;20219;-57
2023/03/01 01:01:23;;;;;;;16.87;10.57;;;0.50;99.90;;;;;;5092081;28;20235;-57
2023/03/01 01:03:52;;;;;;;12.77;9.80;;;0.50;99.90;;;;;;5094091;28;20656;-57
2023/03/01 01:06:21;;;;;;;16.10;10.60;;;0.50;99.90;;;;;;5096238;28;20663;-58
2023/03/01 01:08:49;;;;;;;14.97;10.97;;;0.50;99.90;;;;;;5096435;28;20205;-58
2023/03/01 01:11:17;;;;;;;18.40;10.93;;;0.50;99.90;;;;;;5095989;28;20251;-56
2023/03/01 01:13:46;;;;;;;15.00;10.77;;;0.50;99.90;;;;;;5096037;28;20700;-57
2023/03/01 01:16:13;;;;;;;15.63;11.00;;;0.50;99.90;;;;;;5095938;28;20204;-57
2023/03/01 01:18:40;;;;;;;18.37;10.70;;;0.50;99.90;;;;;;5096029;28;20224;-57
2023/03/01 01:21:09;;;;;;;17.00;11.07;;;0.50;99.90;;;;;;5095727;28;20232;-57
2023/03/01 01:23:37;;;;;;;14.60;10.83;;;0.50;99.90;;;;;;5095917;28;20686;-57
2023/03/01 01:26:10;;;;;;;16.40;10.93;;;0.50;99.90;;;;;;5095966;28;20227;-57
2023/03/01 01:28:37;;;;;;;14.70;10.67;;;0.70;99.90;;;;;;5096121;28;20219;-57
2023/03/01 01:31:04;;;;;;;15.90;11.30;;;0.80;99.90;;;;;;5095517;28;20220;-57
2023/03/01 01:33:31;;;;;;;14.87;10.67;;;0.90;99.90;;;;;;5096329;28;20212;-57
2023/03/01 01:35:57;;;;;;;17.03;11.13;;;1.00;99.90;;;;;;5096084;28;20706;-57
2023/03/01 01:38:25;;;;;;;14.27;10.80;;;1.10;99.90;;;;;;5095761;28;20216;-57
2023/03/01 01:40:52;;;;;;;15.27;11.00;;;1.20;99.90;;;;;;5095333;28;20220;-57
2023/03/01 01:43:23;;;;;;;14.40;11.20;;;1.30;99.90;;;;;;5095481;28;20212;-57
2023/03/01 01:45:50;;;;;;;17.10;11.83;;;1.30;99.90;;;;;;5095102;28;20694;-57
2023/03/01 01:48:20;;;;;;;19.63;11.63;;;1.40;99.90;;;;;;5095371;28;20201;-57
2023/03/01 01:50:53;;;;;;;15.33;11.10;;;1.50;99.90;;;;;;5094884;28;20239;-57
2023/03/01 01:53:20;;;;;;;15.03;10.97;;;1.60;99.90;;;;;;5095203;28;20211;-57
2023/03/01 01:55:56;;;;;;;16.97;11.87;;;1.80;99.90;;;;;;5095323;28;20207;-58
2023/03/01 01:58:27;;;;;;;16.23;11.27;;;1.90;99.90;;;;;;5095316;28;20634;-57
2023/03/01 02:00:54;;;;;;;14.30;10.63;;;1.90;99.90;;;;;;5094538;28;20255;-58
2023/03/01 02:03:28;;;;;;;16.37;11.17;;;2.00;99.90;;;;;;5095048;28;20583;-58
2023/03/01 02:06:01;;;;;;;16.13;11.23;;;2.00;99.90;;;;;;5095216;28;20239;-58
2023/03/01 02:08:31;;;;;;;15.63;10.80;;;2.00;99.90;;;;;;5094832;28;20690;-59
2023/03/01 02:11:00;;;;;;;18.40;11.27;;;2.00;99.90;;;;;;5094698;28;20220;-58
2023/03/01 02:13:29;;;;;;;16.70;11.30;;;1.90;99.90;;;;;;5094879;28;20353;-58
2023/03/01 02:15:56;;;;;;;17.33;12.03;;;1.90;99.90;;;;;;5093529;28;20706;-58
2023/03/01 02:18:25;;;;;;;16.33;11.60;;;1.90;99.90;;;;;;5094827;28;20208;-58
2023/03/01 02:21:11;;;;;;;15.97;11.67;;;1.90;99.90;;;;;;5094283;28;20244;-58
2023/03/01 02:23:38;;;;;;;14.53;11.47;;;1.90;99.90;;;;;;5095164;28;20208;-58
2023/03/01 02:26:11;;;;;;;19.20;11.83;;;2.00;99.90;;;;;;5094800;28;20211;-59
2023/03/01 02:28:41;;;;;;;14.50;11.17;;;2.00;99.90;;;;;;5094760;28;20699;-59
2023/03/01 02:33:55;;;;;;;17.07;11.73;;;2.00;99.90;;;;;;5094694;28;20201;-58
2023/03/01 02:36:26;;;;;;;17.07;11.30;;;2.20;99.90;;;;;;5094603;28;20215;-58
2023/03/01 02:38:57;;;;;;;15.53;11.63;;;2.20;99.90;;;;;;5094492;28;20208;-59
2023/03/01 02:41:25;;;;;;;15.73;11.50;;;2.20;99.90;;;;;;5094207;28;20224;-58
2023/03/01 02:43:53;;;;;;;17.87;11.97;;;2.20;99.90;;;;;;5094999;28;20200;-58
2023/03/01 02:46:23;;;;;;;16.93;12.43;;;2.20;99.90;;;;;;5094460;28;20212;-57
2023/03/01 02:48:52;;;;;;;17.97;12.30;;;2.10;99.90;;;;;;5094302;28;20212;-59
2023/03/01 02:51:28;;;;;;;19.27;12.03;;;2.10;99.90;;;;;;5122968;22;20243;-66
2023/03/01 02:54:07;;;;;;;16.77;12.03;;;2.00;99.90;;;;;;5114054;28;20206;-67
2023/03/01 02:56:34;;;;;;;19.33;11.47;;;2.00;99.90;;;;;;5114081;28;20203;-67
2023/03/01 02:59:03;;;;;;;16.57;12.00;;;1.90;99.90;;;;;;5114043;28;20685;-67
2023/03/01 03:01:36;;;;;;;19.10;12.73;;;1.90;99.90;;;;;;5105821;28;20228;-67
2023/03/01 03:04:03;;;;;;;16.43;11.43;;;1.80;99.90;;;;;;5093725;28;20212;-67
2023/03/01 03:06:30;;;;;;;18.73;12.47;;;1.90;99.90;;;;;;5093690;28;20204;-67
2023/03/01 03:08:57;;;;;;;15.93;12.20;;;1.90;99.90;;;;;;5093512;28;20231;-67
2023/03/01 03:11:24;;;;;;;14.70;11.50;;;1.90;99.90;;;;;;5093471;28;20220;-67
2023/03/01 03:13:51;;;;;;;15.60;11.63;;;1.90;99.90;;;;;;5093589;28;20239;-67
2023/03/01 03:16:19;;;;;;;17.23;11.80;;;1.90;99.90;;;;;;5093559;28;20545;-67
2023/03/01 03:18:47;;;;;;;18.60;11.90;;;1.80;99.90;;;;;;5093706;28;20212;-67
2023/03/01 03:21:14;;;;;;;16.23;11.63;;;1.90;99.90;;;;;;5093659;28;20227;-68
2023/03/01 03:23:41;;;;;;;16.10;11.87;;;1.80;99.90;;;;;;5093151;28;20394;-67
2023/03/01 03:26:07;;;;;;;19.03;12.13;;;1.70;99.90;;;;;;5093073;28;20250;-67
2023/03/01 03:28:35;;;;;;;16.37;11.83;;;1.80;99.90;;;;;;5093084;28;20211;-66
2023/03/01 03:31:03;;;;;;;16.43;11.93;;;1.80;99.90;;;;;;5092791;28;20224;-67
2023/03/01 03:33:31;;;;;;;17.30;12.73;;;1.80;99.90;;;;;;5093210;28;20265;-67
2023/03/01 03:35:58;;;;;;;19.50;12.17;;;1.80;99.90;;;;;;5093137;28;20215;-67
2023/03/01 03:38:25;;;;;;;18.87;12.60;;;1.80;99.90;;;;;;5093728;28;20558;-66
2023/03/01 03:41:02;;;;;;;16.83;11.90;;;1.80;99.90;;;;;;5093945;28;20211;-67
2023/03/01 03:43:29;;;;;;;18.17;12.20;;;1.80;99.90;;;;;;5093910;28;20219;-66
2023/03/01 03:45:56;;;;;;;14.93;11.67;;;1.80;99.90;;;;;;5094125;28;20204;-67
2023/03/01 03:48:24;;;;;;;16.00;11.37;;;1.90;99.90;;;;;;5094047;28;20290;-67
2023/03/01 03:50:54;;;;;;;15.90;11.67;;;1.90;99.90;;;;;;5094080;28;20295;-67
2023/03/01 03:53:22;;;;;;;16.13;12.57;;;2.00;99.90;;;;;;5093529;28;20204;-67
2023/03/01 03:55:51;;;;;;;16.60;11.77;;;2.00;99.90;;;;;;5092939;28;20208;-67
2023/03/01 03:58:19;;;;;;;18.07;11.87;;;2.00;99.90;;;;;;5092816;28;20212;-67
2023/03/01 04:00:47;;;;;;;16.77;12.43;;;2.00;99.90;;;;;;5092379;28;20200;-67
2023/03/01 04:03:16;;;;;;;17.10;11.80;;;2.00;99.90;;;;;;5092443;28;20232;-67
2023/03/01 04:05:43;;;;;;;16.63;11.20;;;2.00;99.90;;;;;;5092661;28;20204;-67
2023/03/01 04:08:11;;;;;;;18.17;12.70;;;2.10;99.90;;;;;;5092468;28;20602;-67
2023/03/01 04:10:40;;;;;;;18.13;12.47;;;2.20;99.90;;;;;;5092087;28;20208;-67
2023/03/01 04:13:10;;;;;;;17.47;11.83;;;2.20;99.90;;;;;;5092313;28;20209;-67
2023/03/01 04:15:37;;;;;;;17.30;12.27;;;2.20;99.90;;;;;;5092032;28;20208;-67
2023/03/01 04:18:03;;;;;;;17.20;12.03;;;2.30;99.90;;;;;;5092446;28;20633;-67
2023/03/01 04:20:34;;;;;;;17.63;11.90;;;2.30;99.90;;;;;;5091991;28;20675;-67
2023/03/01 04:23:10;;;;;;;17.83;12.07;;;2.40;99.90;;;;;;5092148;28;20228;-67
2023/03/01 04:25:38;;;;;;;16.87;12.07;;;2.40;99.90;;;;;;5092009;28;20667;-67
2023/03/01 04:28:06;;;;;;;17.27;11.97;;;2.40;99.90;;;;;;5092099;28;20558;-67
2023/03/01 04:30:35;;;;;;;15.73;12.10;;;2.40;99.90;;;;;;5092082;28;20204;-67
2023/03/01 04:33:03;;;;;;;16.60;12.13;;;2.50;99.90;;;;;;5092369;28;20232;-67
2023/03/01 04:35:30;;;;;;;19.87;13.20;;;2.50;99.90;;;;;;5092082;28;20200;-67
2023/03/01 04:37:56;;;;;;;16.63;12.67;;;2.50;99.90;;;;;;5092128;28;20208;-67
2023/03/01 04:40:23;;;;;;;18.07;12.37;;;2.40;99.90;;;;;;5096053;28;20211;-67
2023/03/01 04:42:51;;;;;;;17.33;12.70;;;2.40;99.90;;;;;;5095607;28;20238;-67
2023/03/01 04:45:18;;;;;;;16.93;12.23;;;2.30;99.90;;;;;;5096396;28;20207;-68
2023/03/01 04:47:47;;;;;;;16.03;11.73;;;2.30;99.90;;;;;;5096482;28;20207;-68
2023/03/01 04:50:16;;;;;;;16.27;12.10;;;2.30;99.90;;;;;;5096390;28;20210;-67
2023/03/01 04:52:43;;;;;;;18.00;11.43;;;2.30;99.90;;;;;;5095917;28;20243;-68
2023/03/01 04:55:11;;;;;;;17.27;11.83;;;2.30;99.90;;;;;;5095880;28;20204;-67
2023/03/01 04:57:38;;;;;;;16.67;11.87;;;2.30;99.90;;;;;;5096237;28;20208;-67
2023/03/01 05:00:19;;;;;;;18.90;12.20;;;2.20;99.90;;;;;;5096067;28;20203;-67
2023/03/01 05:02:53;;;;;;;17.57;11.73;;;2.20;99.90;;;;;;5095425;28;20596;-67
2023/03/01 05:05:21;;;;;;;18.87;12.77;;;2.20;99.90;;;;;;5096317;28;20664;-67
2023/03/01 05:07:48;;;;;;;15.67;11.73;;;2.20;99.90;;;;;;5095402;28;20261;-67
2023/03/01 05:10:15;;;;;;;18.30;12.47;;;2.20;99.90;;;;;;5095785;28;20243;-67
2023/03/01 05:12:41;;;;;;;17.40;12.80;;;2.20;99.90;;;;;;5095645;28;20227;-67
2023/03/01 05:15:10;;;;;;;16.87;12.13;;;2.20;99.90;;;;;;5095712;28;20902;-68
2023/03/01 05:17:37;;;;;;;18.33;12.87;;;2.20;99.90;;;;;;5095378;28;20219;-68
2023/03/01 05:20:08;;;;;;;19.10;11.77;;;2.20;99.90;;;;;;5095578;28;20274;-68
2023/03/01 05:22:35;;;;;;;18.27;13.20;;;2.20;99.90;;;;;;5095096;28;20757;-67
2023/03/01 05:25:01;;;;;;;17.53;12.47;;;2.10;99.90;;;;;;5095485;28;20208;-68
2023/03/01 05:27:29;;;;;;;19.63;12.93;;;2.20;99.90;;;;;;5095332;28;20207;-67
2023/03/01 05:29:56;;;;;;;17.47;12.33;;;2.20;99.90;;;;;;5095283;28;20238;-67
2023/03/01 05:32:24;;;;;;;18.93;12.57;;;2.20;99.90;;;;;;5094997;28;20224;-68
2023/03/01 05:34:51;;;;;;;18.63;12.87;;;2.30;99.90;;;;;;5095076;28;20204;-68
2023/03/01 05:37:19;;;;;;;19.03;13.00;;;2.20;99.90;;;;;;5095535;28;20261;-68
2023/03/01 05:39:46;;;;;;;17.83;12.27;;;2.20;99.90;;;;;;5095595;28;20200;-68
2023/03/01 05:42:13;;;;;;;17.87;11.97;;;2.10;99.90;;;;;;5095166;28;20231;-68
2023/03/01 05:44:40;;;;;;;17.87;13.20;;;2.10;99.90;;;;;;5095098;28;20204;-68
2023/03/01 05:47:06;;;;;;;17.17;12.00;;;2.10;99.90;;;;;;5094969;28;20210;-68
2023/03/01 05:49:34;;;;;;;16.43;12.07;;;2.20;99.90;;;;;;5094754;28;20204;-68
2023/03/01 05:52:01;;;;;;;17.63;12.47;;;2.20;99.90;;;;;;5095024;28;20232;-68
2023/03/01 05:54:28;;;;;;;18.57;12.80;;;2.30;99.90;;;;;;5095186;28;20209;-67
2023/03/01 05:56:56;;;;;;;19.07;12.87;;;2.30;99.90;;;;;;5095027;28;20306;-67
2023/03/01 05:59:22;;;;;;;21.40;12.77;;;2.30;99.90;;;;;;5095809;28;20639;-68
2023/03/01 06:01:49;;;;;;;16.77;12.30;;;2.40;99.90;;;;;;5095616;28;20235;-67
2023/03/01 06:04:16;;;;;;;18.23;13.03;;;2.40;99.90;;;;;;5096271;28;20621;-67
2023/03/01 06:06:44;;;;;;;16.83;12.73;;;2.40;99.90;;;;;;5095524;28;20241;-67
2023/03/01 06:09:11;;;;;;;19.43;13.17;;;2.30;99.90;;;;;;5094886;28;20223;-67
2023/03/01 06:11:38;;;;;;;17.60;12.23;;;2.30;99.90;;;;;;5095107;28;20587;-67
2023/03/01 06:14:06;;;;;;;21.83;13.10;;;2.30;99.90;;;;;;5095291;28;20679;-67
2023/03/01 06:16:33;;;;;;;15.83;12.27;;;2.20;99.90;;;;;;5095488;28;20228;-67
2023/03/01 06:18:59;;;;;;;16.47;12.53;;;2.10;99.90;;;;;;5094750;28;20208;-68
2023/03/01 06:21:26;;;;;;;18.43;13.27;;;2.00;99.90;;;;;;5094111;28;20227;-67
2023/03/01 06:23:54;;;;;;;17.67;12.73;;;1.90;99.90;;;;;;5094297;28;20223;-66
2023/03/01 06:26:21;;;;;;;21.83;13.07;;;1.80;99.90;;;;;;5094249;28;20200;-66
2023/03/01 06:28:47;;;;;;;17.80;12.50;;;1.60;99.90;;;;;;5093959;28;20204;-66
2023/03/01 06:31:14;;;;;;;19.87;13.03;;;1.50;99.90;;;;;;5093700;28;20231;-66
2023/03/01 06:33:41;;;;;;;20.17;12.47;;;1.50;99.90;;;;;;5094198;28;20204;-67
2023/03/01 06:36:09;;;;;;;17.67;12.70;;;1.50;99.90;;;;;;5094174;28;20211;-67
2023/03/01 06:38:36;;;;;;;19.00;13.63;;;1.60;99.90;;;;;;5093829;28;20261;-67
2023/03/01 06:41:05;;;;;;;29.20;13.60;;;1.70;99.90;;;;;;5093795;28;20233;-66
2023/03/01 06:43:31;;;;;;;21.17;13.87;;;1.60;99.90;;;;;;5093445;28;20224;-66
2023/03/01 06:45:58;;;;;;;18.97;13.33;;;1.60;99.90;;;;;;5094044;28;20247;-67
2023/03/01 06:48:25;;;;;;;17.37;12.87;;;1.60;99.90;;;;;;5093647;28;20204;-66
2023/03/01 06:50:52;;;;;;;22.13;13.87;;;1.60;99.90;;;;;;5093290;28;20208;-67
2023/03/01 06:53:18;;;;;;;21.30;14.00;;;1.70;99.90;;;;;;5093762;28;20196;-67
2023/03/01 06:55:45;;;;;;;21.57;13.67;;;2.00;99.90;;;;;;5093835;28;20579;-67
2023/03/01 06:58:13;;;;;;;21.93;13.17;;;2.50;99.90;;;;;;5093486;28;20216;-66
2023/03/01 07:00:40;;;;;;;19.03;12.60;;;3.10;99.90;;;;;;5093353;28;20234;-66
2023/03/01 07:03:07;;;;;;;18.77;12.40;;;3.70;99.90;;;;;;5093206;28;20642;-67
2023/03/01 07:05:34;;;;;;;16.50;12.20;;;4.30;99.90;;;;;;5093644;28;20200;-67
2023/03/01 07:08:01;;;;;;;17.77;12.83;;;4.90;99.90;;;;;;5093392;28;20196;-67
2023/03/01 07:10:28;;;;;;;16.60;12.47;;;5.20;99.90;;;;;;5093764;28;20208;-67
2023/03/01 07:12:56;;;;;;;18.03;11.87;;;5.40;99.90;;;;;;5093043;28;20592;-67
2023/03/01 07:15:25;;;;;;;16.23;11.87;;;5.40;99.90;;;;;;5093737;28;20234;-67
2023/03/01 07:17:51;;;;;;;16.43;11.97;;;5.50;99.90;;;;;;5094066;28;20580;-67
2023/03/01 07:20:19;;;;;;;21.83;12.50;;;5.70;99.90;;;;;;5093325;28;20208;-68
2023/03/01 07:22:45;;;;;;;16.80;12.67;;;6.00;99.90;;;;;;5092830;28;20228;-67
2023/03/01 07:25:12;;;;;;;16.03;12.17;;;6.50;99.90;;;;;;5093072;28;20208;-67
2023/03/01 07:27:40;;;;;;;17.10;12.93;;;6.90;99.90;;;;;;5093351;28;20207;-67
2023/03/01 07:30:08;;;;;;;17.53;12.00;;;7.40;99.90;;;;;;5093182;28;20204;-67
2023/03/01 07:32:36;;;;;;;17.07;12.60;;;7.90;99.90;;;;;;5092921;28;20232;-67
2023/03/01 07:35:03;;;;;;;16.87;12.50;;;8.50;99.90;;;;;;5092886;28;20215;-67
2023/03/01 07:37:29;;;;;;;15.87;12.27;;;9.10;99.90;;;;;;5092981;28;20204;-67
2023/03/01 07:39:57;;;;;;;17.87;12.83;;;9.40;99.40;;;;;;5092667;28;20258;-67
2023/03/01 07:42:24;;;;;;;16.57;12.23;;;9.30;98.20;;;;;;5092824;28;20251;-68
2023/03/01 07:44:50;;;;;;;17.50;13.27;;;8.70;98.30;;;;;;5093112;28;20601;-68
2023/03/01 07:47:17;;;;;;;17.63;12.90;;;7.70;99.00;;;;;;5092655;28;20204;-67
2023/03/01 07:49:45;;;;;;;17.60;13.23;;;6.70;99.90;;;;;;5092892;28;20200;-67
2023/03/01 07:52:12;;;;;;;16.40;13.10;;;5.80;99.90;;;;;;5092333;28;20236;-68
2023/03/01 07:54:39;;;;;;;18.33;13.73;;;5.10;99.90;;;;;;5092937;28;20235;-68
2023/03/01 07:57:06;;;;;;;19.00;13.17;;;4.40;99.90;;;;;;5092839;28;20208;-68
2023/03/01 07:59:33;;;;;;;19.33;12.97;;;3.90;99.90;;;;;;5092858;28;20203;-68
2023/03/01 08:02:00;;;;;;;18.53;13.13;;;3.50;99.90;;;;;;5092120;28;20273;-68
2023/03/01 08:04:27;;;;;;;19.00;13.60;;;3.30;99.90;;;;;;5092429;28;20232;-68
2023/03/01 08:06:55;;;;;;;21.20;13.47;;;3.30;99.90;;;;;;5092246;28;20257;-67
2023/03/01 08:09:22;;;;;;;21.17;12.50;;;3.20;99.90;;;;;;5092356;28;20707;-67
2023/03/01 08:11:49;;;;;;;19.93;13.10;;;3.20;99.90;;;;;;5092134;28;20228;-67
2023/03/01 08:14:16;;;;;;;21.10;13.70;;;3.10;99.90;;;;;;5091230;28;20212;-68
2023/03/01 08:16:43;;;;;;;20.67;14.53;;;3.10;99.90;;;;;;5092583;28;20208;-67
2023/03/01 08:19:11;;;;;;;21.97;13.47;;;3.00;99.90;;;;;;5092272;28;20207;-67
2023/03/01 08:21:38;;;;;;;18.90;13.03;;;3.10;99.90;;;;;;5091953;28;20228;-68
2023/03/01 08:24:09;;;;;;;21.63;14.43;;;3.10;99.90;;;;;;5092251;28;20224;-67
2023/03/01 08:26:37;;;;;;;19.90;13.10;;;3.10;99.90;;;;;;5092672;28;20204;-67
2023/03/01 08:29:04;;;;;;;22.50;14.03;;;3.00;99.90;;;;;;5093238;28;20204;-68
2023/03/01 08:31:35;;;;;;;17.70;12.87;;;3.10;99.90;;;;;;5092544;28;20229;-68
2023/03/01 08:34:03;;;;;;;20.47;13.20;;;3.00;99.90;;;;;;5093143;28;20243;-68
2023/03/01 08:36:32;;;;;;;20.67;14.67;;;3.10;99.90;;;;;;5093466;28;20204;-68
2023/03/01 08:39:00;;;;;;;18.13;13.13;;;3.10;99.90;;;;;;5094420;28;20208;-67
2023/03/01 08:41:28;;;;;;;17.90;13.47;;;3.30;99.90;;;;;;5093082;28;20231;-67
2023/03/01 08:43:58;;;;;;;19.23;13.50;;;3.40;99.90;;;;;;5093588;28;20220;-67
2023/03/01 08:46:25;;;;;;;18.97;13.13;;;3.50;99.90;;;;;;5096331;28;20212;-68
2023/03/01 08:48:52;;;;;;;19.73;13.30;;;3.70;99.90;;;;;;5097147;28;20622;-68
2023/03/01 08:51:21;;;;;;;18.70;12.83;;;3.80;99.90;;;;;;5097536;28;20668;-68
2023/03/01 08:53:48;;;;;;;18.57;13.10;;;3.80;99.90;;;;;;5094080;28;20196;-69
2023/03/01 08:56:15;;;;;;;18.47;13.90;;;3.70;99.90;;;;;;5090553;28;20576;-64
2023/03/01 08:58:46;;;;;;;19.40;13.43;;;3.70;99.90;;;;;;5092434;28;20207;-63
2023/03/01 09:01:15;;;;;;;20.13;13.97;;;3.80;99.90;;;;;;5092153;28;20549;-63
2023/03/01 09:03:42;;;;;;;22.20;14.67;;;3.90;99.90;;;;;;5090634;28;20255;-66
2023/03/01 09:06:09;;;;;;;18.20;12.83;;;4.00;99.90;;;;;;5090029;28;20206;-63
2023/03/01 09:08:37;;;;;;;17.97;13.53;;;4.30;99.90;;;;;;5091000;28;20211;-64
2023/03/01 09:11:04;;;;;;;20.40;14.13;;;4.40;99.90;;;;;;5090491;28;20575;-63
2023/03/01 09:13:31;;;;;;;19.93;13.47;;;4.40;99.90;;;;;;5090682;28;20702;-63
2023/03/01 09:16:01;;;;;;;20.73;13.27;;;4.60;99.90;;;;;;5090512;28;20208;-63
2023/03/01 09:18:28;;;;;;;18.30;13.33;;;4.70;99.90;;;;;;5091052;28;20212;-64
2023/03/01 09:21:01;;;;;;;19.67;13.53;;;4.80;99.90;;;;;;5090744;28;20719;-63
2023/03/01 09:23:28;;;;;;;19.23;13.83;;;4.90;99.90;;;;;;5090609;28;20227;-63
2023/03/01 09:25:55;;;;;;;19.67;13.10;;;5.00;99.90;;;;;;5093439;28;20234;-62
2023/03/01 09:28:23;;;;;;;16.87;12.90;;;5.10;99.90;;;;;;5094151;28;20204;-63
2023/03/01 09:30:49;;;;;;;19.00;13.73;;;5.20;99.90;;;;;;5094120;28;20253;-63
2023/03/01 09:33:17;;;;;;;16.70;12.77;;;5.30;99.90;;;;;;5093964;28;20622;-64
2023/03/01 09:35:46;;;;;;;17.20;12.90;;;5.30;99.90;;;;;;5093854;28;20213;-65
2023/03/01 09:38:14;;;;;;;16.07;12.23;;;5.30;99.90;;;;;;5094066;28;20200;-64
2023/03/01 09:40:46;;;;;;;17.07;12.27;;;5.30;99.90;;;;;;5093718;28;20236;-63
2023/03/01 09:43:19;;;;;;;17.33;11.53;;;5.30;99.90;;;;;;5093862;28;20295;-63
2023/03/01 09:45:48;;;;;;;15.50;12.33;;;5.40;99.90;;;;;;5094237;28;20821;-62
2023/03/01 09:48:21;;;;;;;16.00;11.90;;;5.50;99.90;;;;;;5093951;28;20714;-65
2023/03/01 09:50:49;;;;;;;15.77;11.33;;;5.60;99.90;;;;;;5093941;28;20299;-62
2023/03/01 09:53:18;;;;;;;17.77;12.50;;;5.60;99.90;;;;;;5093645;28;20219;-64
2023/03/01 09:55:46;;;;;;;15.90;11.27;;;5.70;99.90;;;;;;5093677;28;20729;-64
2023/03/01 09:58:34;;;;;;;15.80;11.80;;;5.70;99.90;;;;;;5093399;28;20204;-64
2023/03/01 10:01:11;;;;;;;16.20;12.07;;;5.80;99.90;;;;;;5093700;28;20224;-64
2023/03/01 10:03:46;;;;;;;16.77;11.03;;;5.80;99.90;;;;;;5093573;28;20653;-64
2023/03/01 10:06:16;;;;;;;15.87;11.77;;;5.90;99.90;;;;;;5093262;28;20214;-63
2023/03/01 10:08:47;;;;;;;16.60;11.63;;;5.90;99.90;;;;;;5093266;28;20196;-64
2023/03/01 10:11:22;;;;;;;16.60;11.57;;;6.00;99.90;;;;;;5092727;28;20227;-64
2023/03/01 10:13:55;;;;;;;18.63;10.87;;;6.10;99.90;;;;;;5093414;28;20230;-64
2023/03/01 10:16:27;;;;;;;16.40;11.33;;;6.10;99.90;;;;;;5093879;28;20215;-64
2023/03/01 10:19:00;;;;;;;16.13;12.00;;;6.10;99.90;;;;;;5093375;28;20208;-64
2023/03/01 10:21:29;;;;;;;19.70;12.50;;;6.10;99.90;;;;;;5093577;28;20224;-64
2023/03/01 10:24:12;;;;;;;16.27;11.73;;;6.30;99.90;;;;;;5093131;28;20718;-64
2023/03/01 10:26:51;;;;;;;17.87;12.87;;;6.50;99.90;;;;;;5093318;28;20235;-64
2023/03/01 10:29:18;;;;;;;16.43;12.63;;;6.60;99.90;;;;;;5093264;28;20500;-62
2023/03/01 10:31:47;;;;;;;16.80;11.80;;;6.70;99.90;;;;;;5093437;28;20302;-62
2023/03/01 10:34:18;;;;;;;17.17;11.80;;;6.80;99.90;;;;;;5094143;28;20653;-64
2023/03/01 10:36:48;;;;;;;17.00;11.27;;;6.80;99.90;;;;;;5094015;28;20215;-65
2023/03/01 10:39:18;;;;;;;15.57;11.20;;;7.00;99.90;;;;;;5098653;28;20567;-62
2023/03/01 10:41:58;;;;;;;16.33;10.77;;;7.00;99.90;;;;;;5099219;28;20224;-63
2023/03/01 10:44:43;;;;;;;15.83;11.47;;;7.10;99.90;;;;;;5102903;28;20224;-63
2023/03/01 10:47:16;;;;;;;20.43;11.97;;;7.20;99.90;;;;;;5104168;28;20196;-64
2023/03/01 10:49:59;;;;;;;22.03;11.37;;;7.30;99.90;;;;;;5100546;28;20574;-63
2023/03/01 10:52:29;;;;;;;14.20;10.60;;;7.30;99.90;;;;;;5093888;28;20228;-64
2023/03/01 10:54:59;;;;;;;15.70;11.00;;;7.40;99.90;;;;;;5092989;28;20204;-64
2023/03/01 10:57:37;;;;;;;14.13;10.80;;;7.50;99.90;;;;;;5095870;28;20200;-64
2023/03/01 11:00:24;;;;;;;15.97;11.07;;;7.60;99.90;;;;;;5098426;28;20558;-63
2023/03/01 11:03:03;;;;;;;12.17;9.40;;;7.60;99.90;;;;;;5102115;28;20226;-64
2023/03/01 11:05:33;;;;;;;14.53;10.93;;;7.60;99.90;;;;;;5095650;28;20256;-65
2023/03/01 11:08:01;;;;;;;15.57;10.77;;;7.60;99.90;;;;;;5094714;28;20746;-63
2023/03/01 11:10:30;;;;;;;14.23;11.03;;;7.80;99.90;;;;;;5095840;28;20201;-64
2023/03/01 11:13:09;;;;;;;14.30;11.13;;;8.00;99.90;;;;;;5095582;28;20235;-65
2023/03/01 11:15:36;;;;;;;13.73;11.03;;;8.10;99.90;;;;;;5096106;28;20232;-64
2023/03/01 11:18:03;;;;;;;16.50;11.67;;;8.20;99.90;;;;;;5094110;28;20219;-64
2023/03/01 11:20:35;;;;;;;15.90;10.40;;;8.20;99.40;;;;;;5093690;28;20210;-65
2023/03/01 11:23:06;;;;;;;15.40;11.27;;;8.20;99.50;;;;;;5092465;28;20214;-63
2023/03/01 11:25:37;;;;;;;15.10;11.47;;;8.20;99.70;;;;;;5092244;28;20377;-63
2023/03/01 11:28:06;;;;;;;15.13;11.27;;;8.40;99.90;;;;;;5092132;28;20675;-62
2023/03/01 11:30:38;;;;;;;17.50;11.47;;;8.60;99.40;;;;;;5092032;28;20212;-62
2023/03/01 11:33:14;;;;;;;13.37;10.77;;;8.70;98.80;;;;;;5091886;28;20682;-64
2023/03/01 11:35:48;;;;;;;14.50;9.97;;;8.70;98.60;;;;;;5092284;28;20238;-63
2023/03/01 11:38:21;;;;;;;14.07;10.50;;;8.70;98.80;;;;;;5092193;28;20211;-63
2023/03/01 11:40:54;;;;;;;14.30;10.70;;;8.60;98.90;;;;;;5092071;28;20219;-63
2023/03/01 11:43:25;;;;;;;13.73;11.00;;;8.70;98.90;;;;;;5091662;28;20204;-63
2023/03/01 11:46:25;;;;;;;13.03;10.80;;;8.70;98.50;;;;;;5091256;28;20254;-65
2023/03/01 11:49:02;;;;;;;14.43;10.50;;;8.80;98.30;;;;;;5091982;28;20284;-65
2023/03/01 11:51:42;;;;;;;13.97;10.37;;;8.90;98.50;;;;;;5091241;28;20664;-64
2023/03/01 11:54:29;;;;;;;13.77;10.23;;;8.80;98.10;;;;;;5091966;28;20573;-63
2023/03/01 11:57:01;;;;;;;12.77;9.67;;;8.80;98.60;;;;;;5091621;28;20216;-65
2023/03/01 11:59:56;;;;;;;14.60;10.33;;;8.80;98.70;;;;;;5091796;28;20204;-63
2023/03/01 12:02:58;;;;;;;11.47;9.33;;;8.80;98.40;;;;;;5091114;28;20231;-65
2023/03/01 12:06:03;;;;;;;13.63;10.07;;;8.90;98.50;;;;;;5073470;28;20238;-63
2023/03/01 12:08:38;;;;;;;13.43;9.57;;;9.10;98.20;;;;;;5063740;28;20283;-64
2023/03/01 12:11:21;;;;;;;13.70;10.10;;;9.20;98.10;;;;;;5092419;28;20228;-63
2023/03/01 12:14:18;;;;;;;13.47;10.00;;;9.20;97.80;;;;;;5091628;28;20299;-63
2023/03/01 12:17:12;;;;;;;14.77;9.90;;;9.30;98.00;;;;;;5091608;28;20200;-64
2023/03/01 12:19:55;;;;;;;15.53;9.87;;;9.40;97.90;;;;;;5091814;28;20209;-65
2023/03/01 12:22:30;;;;;;;12.67;9.83;;;9.60;97.40;;;;;;5091249;28;20227;-63
2023/03/01 12:25:20;;;;;;;17.83;10.17;;;9.70;97.00;;;;;;5091458;28;20623;-65
2023/03/01 12:28:03;;;;;;;13.87;10.57;;;9.90;96.80;;;;;;5091624;28;20208;-66
2023/03/01 12:30:43;;;;;;;11.53;9.30;;;9.90;97.10;;;;;;5092086;28;20204;-64
2023/03/01 12:33:27;;;;;;;11.20;8.77;;;10.00;96.40;;;;;;5091751;28;20200;-66
2023/03/01 12:36:28;;;;;;;13.83;10.50;;;10.10;95.90;;;;;;5092436;28;20218;-65
2023/03/01 12:39:09;;;;;;;14.53;10.37;;;10.00;95.70;;;;;;5085736;28;20214;-65
2023/03/01 12:41:47;;;;;;;13.27;9.53;;;10.00;96.00;;;;;;5091616;28;20224;-65
2023/03/01 12:44:42;;;;;;;12.97;10.50;;;10.10;95.70;;;;;;5091049;28;20295;-64
2023/03/01 12:47:23;;;;;;;14.13;10.70;;;10.10;95.80;;;;;;5091534;28;20208;-63
2023/03/01 12:49:55;;;;;;;12.47;9.73;;;10.00;96.20;;;;;;5091721;28;20207;-65
2023/03/01 12:52:30;;;;;;;12.33;10.13;;;9.90;96.30;;;;;;5091206;28;20670;-67
2023/03/01 12:54:59;;;;;;;15.67;11.00;;;9.90;96.60;;;;;;5091537;28;20659;-64
2023/03/01 12:57:36;;;;;;;12.43;10.80;;;9.90;96.80;;;;;;5091093;28;20212;-66